Time;durP1;ratioP1;P1;durP2;ratioP2;P2;SDS_P1;SDS_P2;PMS_P1;PMS_P2;Temp;Humidity;BMP_temperature;BMP_pressure;BME280_temperature;BME280_humidity;BME280_pressure;Samples;Min_cycle;Max_cycle;Signal;HPM_P1;HPM_P2
2023/10/07 00:00:27;;;;;;;;;;;;;;;21.27;63.23;102254.38;5017797;28;19929;-83
2023/10/07 00:02:55;;;;;;;;;;;;;;;21.27;63.15;102256.09;5031040;28;19971;-83
2023/10/07 00:05:26;;;;;;;;;;;;;;;21.25;63.20;102256.06;5034968;28;19921;-83
2023/10/07 00:07:55;;;;;;;;;;;;;;;21.27;63.20;102265.00;5038075;28;19923;-83
2023/10/07 00:10:25;;;;;;;;;;;;;;;21.27;63.23;102257.03;5038658;28;20016;-83
2023/10/07 00:12:51;;;;;;;;;;;;;;;21.27;63.19;102257.03;5041436;28;19920;-83
2023/10/07 00:15:21;;;;;;;;;;;;;;;21.27;63.15;102264.06;5040491;28;20532;-83
2023/10/07 00:17:47;;;;;;;;;;;;;;;21.25;63.21;102252.50;5024545;28;19921;-83
2023/10/07 00:20:12;;;;;;;;;;;;;;;21.29;63.21;102257.06;5032629;28;19925;-83
2023/10/07 00:22:47;;;;;;;;;;;;;;;21.26;62.98;102252.56;5046312;28;19967;-83
2023/10/07 00:25:15;;;;;;;;;;;;;;;21.26;63.12;102249.00;5048397;28;19916;-83
2023/10/07 00:27:42;;;;;;;;;;;;;;;21.23;63.11;102255.13;5050925;28;19967;-83
2023/10/07 00:30:15;;;;;;;;;;;;;;;21.23;63.19;102252.47;5052331;28;19923;-83
2023/10/07 00:32:40;;;;;;;;;;;;;;;21.26;63.18;102255.22;5019200;28;19917;-83
2023/10/07 00:35:06;;;;;;;;;;;;;;;21.27;62.96;102253.44;5031454;28;19913;-83
2023/10/07 00:37:35;;;;;;;;;;;;;;;21.25;63.04;102256.06;5044825;28;19917;-83
2023/10/07 00:40:14;;;;;;;;;;;;;;;21.25;63.20;102252.50;5043447;28;19917;-83
2023/10/07 00:42:44;;;;;;;;;;;;;;;21.22;63.05;102253.28;5052083;28;19923;-83
2023/10/07 00:45:15;;;;;;;;;;;;;;;21.24;63.11;102248.03;5050006;28;19917;-82
2023/10/07 00:47:41;;;;;;;;;;;;;;;21.21;63.07;102248.84;5050872;28;19923;-83
2023/10/07 00:50:09;;;;;;;;;;;;;;;21.22;63.08;102244.44;5048992;28;19921;-83
2023/10/07 00:52:41;;;;;;;;;;;;;;;21.20;63.19;102239.06;5051998;28;19913;-84
2023/10/07 00:57:36;;;;;;;;;;;;;;;21.26;63.01;102233.06;5042354;28;20374;-83
2023/10/07 01:00:12;;;;;;;;;;;;;;;21.23;63.00;102236.53;5050843;28;19979;-83
2023/10/07 01:02:38;;;;;;;;;;;;;;;21.20;63.06;102238.16;5049612;28;20291;-83
2023/10/07 01:05:13;;;;;;;;;;;;;;;21.19;63.19;102237.28;5048579;28;19920;-83
2023/10/07 01:07:40;;;;;;;;;;;;;;;21.21;63.03;102237.28;5051456;28;19956;-84
2023/10/07 01:12:38;;;;;;;;;;;;;;;21.22;62.91;102233.81;5025016;28;19914;-83
2023/10/07 01:15:06;;;;;;;;;;;;;;;21.19;63.02;102228.38;5045732;28;20008;-83
2023/10/07 01:17:33;;;;;;;;;;;;;;;21.20;62.94;102236.41;5036547;28;19936;-83
2023/10/07 01:20:05;;;;;;;;;;;;;;;21.19;62.99;102231.94;5037495;28;20377;-83
2023/10/07 01:22:35;;;;;;;;;;;;;;;21.21;63.01;102234.63;5057726;28;19917;-84
2023/10/07 01:25:06;;;;;;;;;;;;;;;21.18;63.24;102243.41;5039200;28;19917;-83
2023/10/07 01:27:35;;;;;;;;;;;;;;;21.18;63.26;102243.41;5051001;28;19913;-82
2023/10/07 01:30:13;;;;;;;;;;;;;;;21.18;63.16;102231.88;5050743;28;19923;-83
2023/10/07 01:32:48;;;;;;;;;;;;;;;21.17;63.11;102223.03;5046895;28;19967;-82
2023/10/07 01:35:16;;;;;;;;;;;;;;;21.18;63.01;102229.22;5031506;28;19913;-82
2023/10/07 01:37:52;;;;;;;;;;;;;;;21.18;62.93;102223.91;5057668;28;19975;-85
2023/10/07 01:40:17;;;;;;;;;;;;;;;21.17;62.93;102223.03;5055584;28;19921;-85
2023/10/07 01:42:47;;;;;;;;;;;;;;;21.17;63.06;102220.38;5035150;28;19979;-85
2023/10/07 01:45:22;;;;;;;;;;;;;;;21.15;63.17;102222.97;5050076;28;19920;-84
2023/10/07 01:47:48;;;;;;;;;;;;;;;21.14;63.13;102222.91;5039549;28;20011;-84
2023/10/07 01:50:18;;;;;;;;;;;;;;;21.14;63.23;102225.56;5031444;28;20197;-84
2023/10/07 01:52:46;;;;;;;;;;;;;;;21.15;63.23;102224.72;5036498;28;20333;-85
2023/10/07 01:55:13;;;;;;;;;;;;;;;21.14;63.23;102228.22;5044112;28;19975;-85
2023/10/07 01:57:41;;;;;;;;;;;;;;;21.12;63.54;102217.56;5033811;28;19952;-84
2023/10/07 02:00:07;;;;;;;;;;;;;;;21.10;63.41;102224.56;5048233;28;19939;-83
2023/10/07 02:02:42;;;;;;;;;;;;;;;21.10;63.27;102218.34;5032581;28;19916;-85
2023/10/07 02:05:11;;;;;;;;;;;;;;;21.13;63.42;102213.16;5038166;28;19928;-84
2023/10/07 02:07:37;;;;;;;;;;;;;;;21.13;63.42;102224.66;5019777;28;19913;-84
2023/10/07 02:10:02;;;;;;;;;;;;;;;21.11;63.23;102218.41;5043362;28;19924;-85
2023/10/07 02:12:32;;;;;;;;;;;;;;;21.10;63.37;102219.25;5041631;28;19928;-84
2023/10/07 02:14:58;;;;;;;;;;;;;;;21.10;63.41;102221.91;5046901;28;19921;-84
2023/10/07 02:17:25;;;;;;;;;;;;;;;21.08;63.38;102225.34;5036212;28;19996;-84
2023/10/07 02:19:53;;;;;;;;;;;;;;;21.10;63.26;102223.66;5031171;28;20346;-84
2023/10/07 02:22:22;;;;;;;;;;;;;;;21.12;63.18;102232.56;5050853;28;20011;-84
2023/10/07 02:25:02;;;;;;;;;;;;;;;21.09;63.53;102227.19;5032868;28;19917;-84
2023/10/07 02:27:28;;;;;;;;;;;;;;;21.09;63.53;102225.41;5043305;28;19974;-83
2023/10/07 02:29:59;;;;;;;;;;;;;;;21.07;63.26;102231.53;5049171;28;20004;-83
2023/10/07 02:32:25;;;;;;;;;;;;;;;21.07;63.14;102218.25;5017433;28;19959;-83
2023/10/07 02:34:55;;;;;;;;;;;;;;;21.07;63.46;102226.22;5033023;28;20367;-83
2023/10/07 02:37:30;;;;;;;;;;;;;;;21.06;63.27;102222.66;5033463;28;19913;-84
2023/10/07 02:40:00;;;;;;;;;;;;;;;21.06;63.53;102224.41;5050291;28;19924;-84
2023/10/07 02:42:28;;;;;;;;;;;;;;;21.07;63.47;102229.75;5032781;28;19923;-84
2023/10/07 02:45:04;;;;;;;;;;;;;;;21.06;63.47;102227.06;5032793;28;19917;-84
2023/10/07 02:47:32;;;;;;;;;;;;;;;21.03;63.37;102219.00;5033287;28;19944;-83
2023/10/07 02:50:00;;;;;;;;;;;;;;;21.02;63.64;102226.06;5032829;28;19921;-84
2023/10/07 02:52:36;;;;;;;;;;;;;;;21.02;63.44;102223.41;5043032;28;19921;-84
2023/10/07 02:57:55;;;;;;;;;;;;;;;21.01;63.52;102226.91;5017481;28;19987;-83
2023/10/07 03:00:36;;;;;;;;;;;;;;;21.02;63.46;102227.78;5040594;28;19916;-84
2023/10/07 03:05:57;;;;;;;;;;;;;;;21.00;63.48;102224.22;5052555;28;19925;-83
2023/10/07 03:08:31;;;;;;;;;;;;;;;20.99;63.58;102230.34;5034460;28;19931;-83
2023/10/07 03:11:09;;;;;;;;;;;;;;;21.02;63.40;102227.78;5050389;28;20221;-83
2023/10/07 03:13:38;;;;;;;;;;;;;;;20.99;63.45;102225.94;5034010;28;19917;-83
2023/10/07 03:16:28;;;;;;;;;;;;;;;21.02;63.31;102226.06;5032988;28;20390;-83
2023/10/07 03:24:13;;;;;;;;;;;;;;;21.00;63.07;102227.75;5035835;28;19916;-83
2023/10/07 03:26:43;;;;;;;;;;;;;;;20.98;63.31;102225.91;5048567;28;20324;-84
2023/10/07 03:29:09;;;;;;;;;;;;;;;20.95;63.12;102221.38;5051573;28;20019;-83
2023/10/07 03:31:47;;;;;;;;;;;;;;;20.93;63.22;102220.41;5050407;28;19917;-81
2023/10/07 03:34:13;;;;;;;;;;;;;;;20.97;63.15;102216.13;5030001;28;19927;-83
2023/10/07 03:36:41;;;;;;;;;;;;;;;20.97;63.16;102222.31;5042348;28;20297;-83
2023/10/07 03:39:20;;;;;;;;;;;;;;;20.99;63.08;102223.28;5050742;28;19924;-84
2023/10/07 03:41:55;;;;;;;;;;;;;;;20.93;63.14;102218.69;5033483;28;20368;-84
2023/10/07 03:44:22;;;;;;;;;;;;;;;20.96;63.02;102219.66;5051266;28;19917;-84
2023/10/07 03:46:54;;;;;;;;;;;;;;;20.96;63.07;102217.88;5030110;28;19927;-85
2023/10/07 03:49:21;;;;;;;;;;;;;;;20.94;63.12;102220.47;5031370;28;19917;-84
2023/10/07 03:51:48;;;;;;;;;;;;;;;20.93;63.07;102223.06;5044434;28;19921;-84
2023/10/07 03:54:15;;;;;;;;;;;;;;;20.91;63.00;102220.38;5046028;28;19923;-85
2023/10/07 03:56:42;;;;;;;;;;;;;;;20.94;63.04;102215.16;5047725;28;19971;-85
2023/10/07 03:59:07;;;;;;;;;;;;;;;20.96;63.14;102212.56;5052430;28;19930;-86
2023/10/07 04:01:33;;;;;;;;;;;;;;;20.91;63.09;102217.72;5031923;28;19917;-84
2023/10/07 04:04:01;;;;;;;;;;;;;;;20.90;62.96;102215.91;5013088;28;19955;-86
2023/10/07 04:06:30;;;;;;;;;;;;;;;20.92;62.93;102211.56;5031647;28;19925;-85
2023/10/07 04:08:58;;;;;;;;;;;;;;;20.94;63.00;102216.94;5033441;28;19932;-86
2023/10/07 04:11:28;;;;;;;;;;;;;;;20.92;62.91;102215.97;5048947;28;19919;-86
2023/10/07 04:13:55;;;;;;;;;;;;;;;20.92;62.97;102213.31;5041532;28;19917;-85
2023/10/07 04:16:24;;;;;;;;;;;;;;;20.93;62.93;102217.75;5041683;28;19924;-86
2023/10/07 04:18:58;;;;;;;;;;;;;;;20.92;62.94;102223.94;5051888;28;19927;-84
2023/10/07 04:21:24;;;;;;;;;;;;;;;20.93;62.79;102225.72;5021942;28;19964;-85
2023/10/07 04:23:50;;;;;;;;;;;;;;;20.86;63.10;102227.28;5048880;28;19956;-84
2023/10/07 04:26:21;;;;;;;;;;;;;;;20.84;63.19;102228.06;5025863;28;19967;-84
2023/10/07 04:28:48;;;;;;;;;;;;;;;20.85;63.04;102232.50;5048790;28;19924;-84
2023/10/07 04:31:16;;;;;;;;;;;;;;;20.88;62.92;102232.63;5030501;28;19972;-84
2023/10/07 04:33:48;;;;;;;;;;;;;;;20.87;62.93;102230.81;5050604;28;19930;-84
2023/10/07 04:36:14;;;;;;;;;;;;;;;20.85;63.33;102237.81;5044200;28;19917;-84
2023/10/07 04:38:53;;;;;;;;;;;;;;;20.83;62.95;102239.56;5022885;28;19925;-83
2023/10/07 04:43:58;;;;;;;;;;;;;;;20.83;62.92;102248.41;5047696;28;20286;-84
2023/10/07 04:46:24;;;;;;;;;;;;;;;20.76;62.53;102246.38;5033378;28;19967;-83
2023/10/07 04:48:56;;;;;;;;;;;;;;;20.74;62.90;102243.69;5049050;28;19917;-83
2023/10/07 04:54:00;;;;;;;;;;;;;;;20.76;62.98;102245.47;5039524;28;19920;-86
2023/10/07 04:56:25;;;;;;;;;;;;;;;20.79;63.01;102246.50;5048504;28;20447;-85
2023/10/07 04:58:52;;;;;;;;;;;;;;;20.79;63.09;102243.84;5043099;28;19925;-84
2023/10/07 05:01:33;;;;;;;;;;;;;;;20.79;63.13;102253.56;5036111;28;19972;-85
2023/10/07 05:04:05;;;;;;;;;;;;;;;20.79;62.82;102243.84;5044989;28;19924;-83
2023/10/07 05:06:34;;;;;;;;;;;;;;;20.81;62.82;102250.13;5027484;28;19921;-86
2023/10/07 05:09:09;;;;;;;;;;;;;;;20.74;63.01;102243.69;5030419;28;19920;-85
2023/10/07 05:11:40;;;;;;;;;;;;;;;20.77;62.83;102250.84;5042070;28;19924;-86
2023/10/07 05:14:07;;;;;;;;;;;;;;;20.74;63.12;102253.38;5025728;28;19923;-85
2023/10/07 05:16:34;;;;;;;;;;;;;;;20.74;62.86;102250.72;5040797;28;20003;-86
2023/10/07 05:19:00;;;;;;;;;;;;;;;20.82;62.85;102257.22;5047690;28;20420;-86
2023/10/07 05:21:27;;;;;;;;;;;;;;;20.74;63.13;102250.72;5040391;28;20011;-85
2023/10/07 05:23:55;;;;;;;;;;;;;;;20.74;63.02;102246.34;5043921;28;19932;-88
2023/10/07 05:26:30;;;;;;;;;;;;;;;20.75;63.16;102255.19;5026882;28;20023;-94
2023/10/07 05:29:01;;;;;;;;;;;;;;;20.71;63.01;102251.53;5027843;28;19925;-95
2023/10/07 05:31:42;;;;;;;;;;;;;;;20.69;62.98;102258.53;5010097;28;19916;-94
2023/10/07 05:34:08;;;;;;;;;;;;;;;20.74;63.06;102256.03;5013068;28;20444;-94
2023/10/07 05:36:37;;;;;;;;;;;;;;;20.73;63.11;102257.78;5014750;28;19916;-94
2023/10/07 05:39:07;;;;;;;;;;;;;;;20.72;62.94;102258.66;5020528;28;19921;-93
2023/10/07 05:41:42;;;;;;;;;;;;;;;20.73;63.08;102259.56;5031362;28;19964;-93
2023/10/07 05:44:09;;;;;;;;;;;;;;;20.72;63.11;102263.97;5017921;28;19940;-94
2023/10/07 05:46:42;;;;;;;;;;;;;;;20.74;62.89;102259.63;5038551;28;20479;-94
2023/10/07 05:49:14;;;;;;;;;;;;;;;20.70;62.97;102262.06;5014762;28;19967;-94
2023/10/07 05:51:44;;;;;;;;;;;;;;;20.73;63.00;102259.56;5018997;28;19917;-94
2023/10/07 05:54:18;;;;;;;;;;;;;;;20.70;63.11;102254.13;5051940;28;19989;-95
2023/10/07 05:56:48;;;;;;;;;;;;;;;20.69;63.04;102255.88;5039333;28;19959;-95
2023/10/07 05:59:16;;;;;;;;;;;;;;;20.69;63.14;102255.88;5018672;28;19921;-94
2023/10/07 06:02:05;;;;;;;;;;;;;;;20.70;63.05;102262.06;5033319;28;19902;-94
2023/10/07 06:04:44;;;;;;;;;;;;;;;20.71;63.02;102261.25;5019179;28;20382;-95
2023/10/07 06:07:20;;;;;;;;;;;;;;;20.68;63.07;102264.69;5035398;28;19987;-95
2023/10/07 06:12:49;;;;;;;;;;;;;;;20.69;63.17;102265.59;5048044;28;19917;-95
2023/10/07 06:21:27;;;;;;;;;;;;;;;20.69;63.26;102268.25;5050484;28;19924;-90
2023/10/07 06:23:53;;;;;;;;;;;;;;;20.70;63.26;102272.69;5023864;28;20431;-96
2023/10/07 06:26:25;;;;;;;;;;;;;;;20.71;63.34;102271.88;5025441;28;19925;-93
2023/10/07 06:28:52;;;;;;;;;;;;;;;20.69;63.38;102271.81;5030296;28;19917;-94
2023/10/07 06:31:40;;;;;;;;;;;;;;;20.69;63.31;102273.56;5027126;28;19921;-96
2023/10/07 06:34:15;;;;;;;;;;;;;;;20.68;63.31;102272.66;5044949;28;20266;-95
2023/10/07 06:36:40;;;;;;;;;;;;;;;20.71;63.37;102269.22;5051219;28;20024;-93
2023/10/07 06:39:10;;;;;;;;;;;;;;;20.69;63.41;102271.81;5049715;28;20007;-95
2023/10/07 06:41:42;;;;;;;;;;;;;;;20.62;63.65;102264.47;5024118;28;19917;-93
2023/10/07 06:44:36;;;;;;;;;;;;;;;20.65;63.52;102264.56;5020013;28;20457;-95
2023/10/07 06:47:10;;;;;;;;;;;;;;;20.68;63.38;102267.34;5038953;28;20397;-95
2023/10/07 06:49:39;;;;;;;;;;;;;;;20.69;63.55;102258.53;5019438;28;20314;-93
2023/10/07 06:52:12;;;;;;;;;;;;;;;20.71;63.29;102250.63;5036825;28;19912;-95
2023/10/07 06:54:54;;;;;;;;;;;;;;;20.70;63.52;102251.47;5022650;28;19921;-94
2023/10/07 06:57:21;;;;;;;;;;;;;;;20.67;63.51;102246.94;5028020;28;19917;-92
2023/10/07 06:59:47;;;;;;;;;;;;;;;20.62;63.68;102247.66;5028295;28;19924;-90
2023/10/07 07:02:18;;;;;;;;;;;;;;;20.64;63.54;102248.63;5031262;28;19920;-93
2023/10/07 07:05:13;;;;;;;;;;;;;;;20.70;63.45;102240.84;5041222;28;19924;-95
2023/10/07 07:07:41;;;;;;;;;;;;;;;20.71;63.42;102237.34;5021846;28;19921;-95
2023/10/07 07:10:31;;;;;;;;;;;;;;;20.72;63.37;102237.41;5009358;28;19992;-95
2023/10/07 07:13:04;;;;;;;;;;;;;;;20.73;63.41;102240.97;5022190;28;19996;-94
2023/10/07 07:15:37;;;;;;;;;;;;;;;20.69;63.56;102233.75;5033898;28;19918;-94
2023/10/07 07:18:15;;;;;;;;;;;;;;;20.70;63.51;102231.16;5013696;28;21126;-95
2023/10/07 07:21:41;;;;;;;;;;;;;;;20.70;63.64;102239.13;5001707;28;20432;-94
2023/10/07 07:23:52;;;;;;;;;;;;;;;20.66;63.76;102234.53;4998468;28;19932;-95
2023/10/07 07:29:33;;;;;;;;;;;;;;;20.72;63.49;102241.81;5031814;28;19924;-93
2023/10/07 07:32:17;;;;;;;;;;;;;;;20.67;63.61;102241.63;5002636;28;20396;-95
2023/10/07 07:34:54;;;;;;;;;;;;;;;20.67;63.68;102244.28;5021698;28;19918;-95
2023/10/07 07:43:14;;;;;;;;;;;;;;;20.63;64.08;102250.34;5024250;28;19924;-95
2023/10/07 07:45:40;;;;;;;;;;;;;;;20.68;63.92;102255.81;5002975;28;19956;-94
2023/10/07 07:48:07;;;;;;;;;;;;;;;20.62;63.85;102256.50;5001289;28;19913;-95
2023/10/07 07:50:39;;;;;;;;;;;;;;;20.69;63.73;102254.97;5001922;28;19917;-94
2023/10/07 07:53:17;;;;;;;;;;;;;;;20.61;64.14;102252.03;5005232;28;19921;-95
2023/10/07 07:55:56;;;;;;;;;;;;;;;20.56;64.19;102252.69;5030917;28;19917;-96
2023/10/07 07:58:26;;;;;;;;;;;;;;;20.53;64.17;102253.47;5027322;28;19921;-95
2023/10/07 08:00:58;;;;;;;;;;;;;;;20.49;64.70;102255.13;5011240;28;19964;-93
2023/10/07 08:06:13;;;;;;;;;;;;;;;20.52;64.37;102249.03;5041410;28;19960;-94
2023/10/07 08:08:53;;;;;;;;;;;;;;;20.45;64.66;102250.53;5023007;28;19920;-95
2023/10/07 08:11:19;;;;;;;;;;;;;;;20.52;64.14;102249.03;5027047;28;19913;-95
2023/10/07 08:13:54;;;;;;;;;;;;;;;20.46;64.36;102251.44;5046321;28;20404;-94
2023/10/07 08:19:30;;;;;;;;;;;;;;;20.48;64.54;102249.75;5043339;28;20067;-95
2023/10/07 08:22:02;;;;;;;;;;;;;;;20.47;64.40;102246.19;5050170;28;19912;-96
2023/10/07 08:24:31;;;;;;;;;;;;;;;20.47;64.43;102253.25;5053627;28;19913;-95
2023/10/07 08:27:03;;;;;;;;;;;;;;;20.49;64.53;102238.31;5052568;28;19913;-96
2023/10/07 08:29:32;;;;;;;;;;;;;;;20.45;64.59;102239.94;5050943;28;19921;-94
2023/10/07 08:32:28;;;;;;;;;;;;;;;20.47;64.62;102242.66;5063408;28;19920;-95
2023/10/07 08:34:59;;;;;;;;;;;;;;;20.49;64.62;102239.19;5032904;28;19940;-94
2023/10/07 08:37:45;;;;;;;;;;;;;;;20.49;64.82;102233.00;5024069;28;19913;-94
2023/10/07 08:40:26;;;;;;;;;;;;;;;20.50;64.71;102234.78;5024169;28;19992;-94
2023/10/07 08:42:55;;;;;;;;;;;;;;;20.50;64.92;102229.47;5028116;28;20306;-95
2023/10/07 08:45:30;;;;;;;;;;;;;;;20.54;64.77;102231.41;5006300;28;20036;-95
2023/10/07 08:48:15;;;;;;;;;;;;;;;20.51;64.96;102229.53;5032841;28;20012;-94
2023/10/07 08:50:58;;;;;;;;;;;;;;;20.45;64.90;102234.63;5018084;28;19921;-96
2023/10/07 08:53:24;;;;;;;;;;;;;;;20.50;64.84;102232.13;5039909;28;19940;-96
2023/10/07 08:55:52;;;;;;;;;;;;;;;20.56;64.78;102226.16;5042389;28;19901;-96
2023/10/07 08:58:34;;;;;;;;;;;;;;;20.56;64.82;102228.81;5050991;28;19927;-96
2023/10/07 09:01:01;;;;;;;;;;;;;;;20.55;64.83;102225.22;5028733;28;19917;-95
2023/10/07 09:03:50;;;;;;;;;;;;;;;20.54;64.71;102227.00;5031639;28;19921;-94
2023/10/07 09:06:16;;;;;;;;;;;;;;;20.53;64.65;102224.28;5023075;28;19921;-94
2023/10/07 09:08:47;;;;;;;;;;;;;;;20.55;64.50;102222.56;4999965;28;19917;-93
2023/10/07 09:11:19;;;;;;;;;;;;;;;20.59;64.32;102219.22;5004394;28;19927;-95
2023/10/07 09:13:44;;;;;;;;;;;;;;;20.60;64.44;102223.69;5000129;28;19920;-94
2023/10/07 09:16:12;;;;;;;;;;;;;;;20.64;64.26;102222.06;5015688;28;19946;-93
2023/10/07 09:18:46;;;;;;;;;;;;;;;20.60;64.30;102221.03;5015129;28;19925;-94
2023/10/07 09:21:33;;;;;;;;;;;;;;;20.62;64.11;102221.09;5012912;28;19917;-92
2023/10/07 09:24:02;;;;;;;;;;;;;;;20.64;64.18;102216.75;5034067;28;19917;-93
2023/10/07 09:26:46;;;;;;;;;;;;;;;20.59;64.35;102216.56;4999685;28;19925;-94
2023/10/07 09:29:15;;;;;;;;;;;;;;;20.66;64.11;102213.31;5037490;28;19917;-94
2023/10/07 09:35:19;;;;;;;;;;;;;;;20.70;63.92;102199.28;5028162;28;19928;-94
2023/10/07 09:37:54;;;;;;;;;;;;;;;20.61;64.16;102208.66;5002118;28;19982;-95
2023/10/07 09:43:13;;;;;;;;;;;;;;;20.71;63.81;102193.13;5016349;28;19989;-94
2023/10/07 09:45:58;;;;;;;;;;;;;;;20.64;64.00;102183.16;5000618;28;20000;-93
2023/10/07 09:48:41;;;;;;;;;;;;;;;20.64;64.11;102180.50;5004338;28;19928;-94
2023/10/07 09:51:34;;;;;;;;;;;;;;;20.65;64.15;102179.63;5000054;28;19917;-93
2023/10/07 09:54:27;;;;;;;;;;;;;;;20.64;64.08;102169.88;5027061;28;19984;-94
2023/10/07 09:57:19;;;;;;;;;;;;;;;20.60;64.46;102170.59;5030910;28;19975;-94
2023/10/07 10:00:32;;;;;;;;;;;;;;;20.68;64.08;102168.19;5003404;28;20378;-96
2023/10/07 10:03:29;;;;;;;;;;;;;;;20.66;64.38;102162.88;5037366;28;20015;-95
2023/10/07 10:06:18;;;;;;;;;;;;;;;20.65;64.39;102163.69;5018292;28;19920;-91
2023/10/07 10:08:58;;;;;;;;;;;;;;;20.67;64.44;102159.34;5054765;28;19944;-94
2023/10/07 10:14:56;;;;;;;;;;;;;;;20.69;64.52;102132.84;5051201;28;20390;-94
2023/10/07 10:17:21;;;;;;;;;;;;;;;20.67;64.46;102132.81;5037539;28;19939;-96
2023/10/07 10:19:51;;;;;;;;;;;;;;;20.65;64.52;102126.53;5032497;28;20023;-94
2023/10/07 10:22:24;;;;;;;;;;;;;;;20.69;64.36;102116.94;5037075;28;19990;-95
2023/10/07 10:24:54;;;;;;;;;;;;;;;20.69;64.40;102122.25;5014879;28;20290;-93
2023/10/07 10:27:22;;;;;;;;;;;;;;;20.65;64.37;102105.28;5031260;28;19952;-95
2023/10/07 10:29:55;;;;;;;;;;;;;;;20.62;64.43;102106.97;5017175;28;20011;-94
2023/10/07 10:32:29;;;;;;;;;;;;;;;20.68;64.47;102107.16;5018007;28;20451;-95
2023/10/07 10:35:03;;;;;;;;;;;;;;;20.74;64.11;102102.97;5028004;28;19948;-94
2023/10/07 10:37:34;;;;;;;;;;;;;;;20.68;64.34;102102.75;5021240;28;19913;-94
2023/10/07 10:40:20;;;;;;;;;;;;;;;20.71;64.36;102096.66;5039626;28;19948;-93
2023/10/07 10:43:05;;;;;;;;;;;;;;;20.66;64.63;102087.66;5041157;28;19912;-94
2023/10/07 10:45:48;;;;;;;;;;;;;;;20.69;64.54;102091.28;5034471;28;19917;-94
2023/10/07 10:48:24;;;;;;;;;;;;;;;20.80;64.02;102078.34;5018482;28;19913;-94
2023/10/07 10:50:50;;;;;;;;;;;;;;;20.72;64.08;102074.53;5043698;28;19916;-95
2023/10/07 10:53:16;;;;;;;;;;;;;;;20.69;64.32;102071.81;5028217;28;19912;-93
2023/10/07 10:55:42;;;;;;;;;;;;;;;20.67;64.49;102058.47;5034188;28;19916;-95
2023/10/07 10:58:18;;;;;;;;;;;;;;;20.67;64.48;102060.22;5050835;28;19948;-95
2023/10/07 11:00:55;;;;;;;;;;;;;;;20.69;64.42;102054.13;5022717;28;19916;-94
2023/10/07 11:03:23;;;;;;;;;;;;;;;20.70;64.71;102055.94;5035298;28;19921;-92
2023/10/07 11:05:52;;;;;;;;;;;;;;;20.70;64.74;102052.34;5019298;28;19960;-94
2023/10/07 11:08:33;;;;;;;;;;;;;;;20.72;64.64;102045.34;5017103;28;20313;-93
2023/10/07 11:14:13;;;;;;;;;;;;;;;20.71;64.54;102044.44;5042693;28;19920;-94
2023/10/07 11:17:08;;;;;;;;;;;;;;;20.74;64.58;102041.00;5022158;28;20417;-94
2023/10/07 11:19:47;;;;;;;;;;;;;;;20.73;64.53;102034.78;5029968;28;20390;-93
2023/10/07 11:22:22;;;;;;;;;;;;;;;20.72;64.61;102029.41;5021475;28;19917;-93
2023/10/07 11:24:55;;;;;;;;;;;;;;;20.71;64.62;102023.22;5022087;28;19913;-93
2023/10/07 11:27:30;;;;;;;;;;;;;;;20.68;64.83;102019.53;5021430;28;19913;-94
2023/10/07 11:29:57;;;;;;;;;;;;;;;20.86;64.24;102016.59;5038425;28;19967;-90
2023/10/07 11:32:46;;;;;;;;;;;;;;;20.85;64.12;102009.47;5037307;28;19920;-92
2023/10/07 11:35:27;;;;;;;;;;;;;;;20.87;64.08;102013.06;5038722;28;19917;-92
2023/10/07 11:38:02;;;;;;;;;;;;;;;20.97;63.78;102015.16;5025581;28;19917;-94
2023/10/07 11:40:32;;;;;;;;;;;;;;;20.90;64.00;102007.88;5022999;28;19917;-93
2023/10/07 11:43:13;;;;;;;;;;;;;;;20.91;63.91;102005.28;5022035;28;19916;-93
2023/10/07 11:45:42;;;;;;;;;;;;;;;21.00;63.66;102002.00;5035251;28;19956;-91
2023/10/07 11:48:19;;;;;;;;;;;;;;;20.99;63.81;101994.88;5010317;28;19999;-93
2023/10/07 11:50:57;;;;;;;;;;;;;;;21.02;64.12;101988.75;5042949;28;19913;-95
2023/10/07 11:53:31;;;;;;;;;;;;;;;21.11;63.42;101992.59;5023779;28;19913;-93
2023/10/07 11:55:59;;;;;;;;;;;;;;;21.13;63.51;101987.34;5021119;28;20011;-93
2023/10/07 11:58:29;;;;;;;;;;;;;;;21.17;63.52;101983.94;5039371;28;19974;-93
2023/10/07 12:00:56;;;;;;;;;;;;;;;21.14;63.60;101982.09;5023749;28;20386;-94
2023/10/07 12:03:27;;;;;;;;;;;;;;;21.22;63.36;101978.75;5011958;28;19921;-92
2023/10/07 12:05:52;;;;;;;;;;;;;;;21.18;63.84;101982.16;5039689;28;20020;-90
2023/10/07 12:08:27;;;;;;;;;;;;;;;21.22;63.67;101969.00;5027370;28;19964;-92
2023/10/07 12:10:53;;;;;;;;;;;;;;;21.26;63.80;101962.94;5043294;28;19917;-92
2023/10/07 12:13:19;;;;;;;;;;;;;;;21.24;64.03;101964.66;5031776;28;19948;-91
2023/10/07 12:15:46;;;;;;;;;;;;;;;21.33;63.27;101954.28;5049861;28;19940;-91
2023/10/07 12:18:16;;;;;;;;;;;;;;;21.35;63.55;101949.91;5044387;28;19929;-92
2023/10/07 12:20:42;;;;;;;;;;;;;;;21.33;63.60;101946.31;5029863;28;19924;-92
2023/10/07 12:23:08;;;;;;;;;;;;;;;21.35;63.67;101944.59;5047156;28;19928;-93
2023/10/07 12:25:45;;;;;;;;;;;;;;;21.44;63.61;101938.69;5038674;28;19917;-92
2023/10/07 12:28:10;;;;;;;;;;;;;;;21.48;63.61;101934.34;5036714;28;19916;-92
2023/10/07 12:30:37;;;;;;;;;;;;;;;21.42;63.82;101927.13;5034070;28;20397;-91
2023/10/07 12:33:03;;;;;;;;;;;;;;;21.44;64.03;101924.47;5040127;28;19901;-93
2023/10/07 12:35:34;;;;;;;;;;;;;;;21.44;64.04;101920.09;5026973;28;19972;-92
2023/10/07 12:38:00;;;;;;;;;;;;;;;21.44;64.05;101920.09;5045749;28;19917;-93
2023/10/07 12:40:30;;;;;;;;;;;;;;;21.49;64.03;101918.44;5026765;28;19917;-94
2023/10/07 12:42:57;;;;;;;;;;;;;;;21.47;64.29;101914.84;5005481;28;19913;-93
2023/10/07 12:45:23;;;;;;;;;;;;;;;21.47;64.55;101909.53;5030517;28;19921;-92
2023/10/07 12:47:55;;;;;;;;;;;;;;;21.52;63.80;101904.34;5020778;28;19920;-92
2023/10/07 12:50:24;;;;;;;;;;;;;;;21.56;63.74;101900.91;5021037;28;19967;-91
2023/10/07 12:53:10;;;;;;;;;;;;;;;21.57;64.50;101897.41;5034270;28;19917;-92
2023/10/07 12:55:37;;;;;;;;;;;;;;;21.52;64.16;101893.69;5037227;28;19913;-93
2023/10/07 12:58:16;;;;;;;;;;;;;;;21.48;64.87;101884.78;5020427;28;19970;-93
2023/10/07 13:00:43;;;;;;;;;;;;;;;21.47;64.38;101885.63;5037147;28;19991;-93
2023/10/07 13:03:14;;;;;;;;;;;;;;;21.49;64.92;101878.59;5049255;28;19917;-92
2023/10/07 13:05:41;;;;;;;;;;;;;;;21.46;65.31;101883.81;5036649;28;19983;-92
2023/10/07 13:08:14;;;;;;;;;;;;;;;21.51;64.93;101870.66;5019217;28;20011;-92
2023/10/07 13:10:47;;;;;;;;;;;;;;;21.48;65.72;101868.81;5043129;28;20316;-93
2023/10/07 13:13:25;;;;;;;;;;;;;;;21.48;65.54;101866.16;5024526;28;20020;-93
2023/10/07 13:15:51;;;;;;;;;;;;;;;21.49;65.73;101861.75;5028757;28;19909;-92
2023/10/07 13:18:18;;;;;;;;;;;;;;;21.53;65.30;101863.63;5042442;28;19931;-95
2023/10/07 13:20:44;;;;;;;;;;;;;;;21.53;65.78;101850.34;5044280;28;19948;-93
2023/10/07 13:23:11;;;;;;;;;;;;;;;21.52;65.66;101848.53;5038933;28;19912;-93
2023/10/07 13:25:45;;;;;;;;;;;;;;;21.54;66.73;101853.00;5044627;28;19925;-93
2023/10/07 13:28:11;;;;;;;;;;;;;;;21.54;66.00;101846.81;5049280;28;19901;-95
2023/10/07 13:30:37;;;;;;;;;;;;;;;21.53;66.14;101853.88;5044293;28;19978;-95
2023/10/07 13:33:05;;;;;;;;;;;;;;;21.54;67.10;101849.47;5041985;28;19913;-96
2023/10/07 13:35:32;;;;;;;;;;;;;;;21.55;67.24;101846.84;5038725;28;19921;-94
2023/10/07 13:38:00;;;;;;;;;;;;;;;21.48;67.55;101850.22;5057810;28;19916;-93
2023/10/07 13:40:29;;;;;;;;;;;;;;;21.49;68.05;101849.34;5123085;23;19931;-94
2023/10/07 13:42:55;;;;;;;;;;;;;;;21.45;68.92;101844.81;5051131;28;19933;-93
2023/10/07 13:45:23;;;;;;;;;;;;;;;21.42;68.94;101843.81;5039689;28;19920;-93
2023/10/07 13:48:11;;;;;;;;;;;;;;;21.40;69.20;101837.53;5020826;28;19970;-93
2023/10/07 13:50:39;;;;;;;;;;;;;;;21.48;69.15;101836.94;5039144;28;19921;-91
2023/10/07 13:53:16;;;;;;;;;;;;;;;21.45;69.71;101831.50;5037567;28;20445;-92
2023/10/07 13:55:56;;;;;;;;;;;;;;;21.45;69.40;101825.31;5014066;28;19948;-91
2023/10/07 13:58:24;;;;;;;;;;;;;;;21.45;69.95;101825.31;5017491;28;19925;-91